Time;durP1;ratioP1;P1;durP2;ratioP2;P2;SDS_P1;SDS_P2;PMS_P1;PMS_P2;Temp;Humidity;BMP_temperature;BMP_pressure;BME280_temperature;BME280_humidity;BME280_pressure;Samples;Min_cycle;Max_cycle;Signal;HPM_P1;HPM_P2
2022/08/26 00:00:40;;;;;;;;;;;;;;;29.27;72.61;100751.72;5058658;28;67193;-37
2022/08/26 00:03:12;;;;;;;;;;;;;;;29.30;73.26;100756.69;5076238;27;70909;-37
2022/08/26 00:05:45;;;;;;;;;;;;;;;29.33;73.69;100753.56;5062309;28;66587;-36
2022/08/26 00:08:19;;;;;;;;;;;;;;;29.25;74.35;100774.59;5065999;28;70981;-36
2022/08/26 00:10:51;;;;;;;;;;;;;;;29.17;74.81;100779.19;5065579;28;66363;-35
2022/08/26 00:13:23;;;;;;;;;;;;;;;29.15;75.42;100777.75;5058948;28;69846;-36
2022/08/26 00:15:54;;;;;;;;;;;;;;;29.16;75.99;100782.09;5061399;28;67298;-34
2022/08/26 00:18:26;;;;;;;;;;;;;;;29.24;75.70;100789.97;5063587;28;69748;-38
2022/08/26 00:21:02;;;;;;;;;;;;;;;29.32;76.04;100800.56;5062111;28;66927;-37
2022/08/26 00:23:36;;;;;;;;;;;;;;;29.36;75.95;100799.09;5067727;28;70153;-37
2022/08/26 00:26:09;;;;;;;;;;;;;;;29.41;75.24;100801.16;5043274;28;67052;-37
2022/08/26 00:28:41;;;;;;;;;;;;;;;29.44;75.49;100797.19;5071956;28;70902;-36
2022/08/26 00:31:13;;;;;;;;;;;;;;;29.49;74.98;100794.69;5076804;27;67060;-37
2022/08/26 00:33:45;;;;;;;;;;;;;;;29.54;75.05;100805.69;5064193;28;71039;-34
2022/08/26 00:36:18;;;;;;;;;;;;;;;29.63;72.35;100804.44;5081897;27;67048;-35
2022/08/26 00:38:50;;;;;;;;;;;;;;;29.70;71.98;100799.00;5081142;27;69782;-34
2022/08/26 00:41:23;;;;;;;;;;;;;;;29.77;71.74;100800.63;5086318;27;67419;-36
2022/08/26 00:43:55;;;;;;;;;;;;;;;29.85;72.20;100807.69;5085432;27;72058;-33
2022/08/26 00:46:32;;;;;;;;;;;;;;;29.93;71.16;100810.13;5089567;27;67123;-34
2022/08/26 00:49:13;;;;;;;;;;;;;;;29.99;71.31;100824.69;5089478;27;70409;-35
2022/08/26 00:51:48;;;;;;;;;;;;;;;30.07;71.52;100832.53;5069889;28;66686;-34
2022/08/26 00:54:22;;;;;;;;;;;;;;;30.11;71.49;100828.34;5067054;27;70931;-34
2022/08/26 00:56:58;;;;;;;;;;;;;;;30.18;70.33;100829.16;5087510;27;66015;-34
2022/08/26 00:59:31;;;;;;;;;;;;;;;30.22;70.37;100824.97;5087507;27;71222;-34
2022/08/26 01:02:03;;;;;;;;;;;;;;;30.26;70.88;100830.81;5064805;27;66160;-35
2022/08/26 01:04:51;;;;;;;;;;;;;;;30.31;70.57;100832.84;5084135;27;70984;-34
2022/08/26 01:07:27;;;;;;;;;;;;;;;30.35;70.02;100834.09;5093936;27;66567;-34
2022/08/26 01:10:02;;;;;;;;;;;;;;;30.38;70.15;100830.94;5086808;27;70755;-34
2022/08/26 01:12:37;;;;;;;;;;;;;;;30.43;69.82;100842.75;5089665;27;67520;-35
2022/08/26 01:15:12;;;;;;;;;;;;;;;30.47;69.70;100843.16;5091411;27;70939;-34
2022/08/26 01:17:44;;;;;;;;;;;;;;;30.50;69.87;100837.28;5065732;27;67317;-35
2022/08/26 01:20:17;;;;;;;;;;;;;;;30.54;70.17;100849.34;5067323;27;70498;-35
2022/08/26 01:22:59;;;;;;;;;;;;;;;30.57;70.37;100851.63;5084588;27;66307;-35
2022/08/26 01:25:34;;;;;;;;;;;;;;;30.60;69.84;100843.06;5057944;27;70678;-34
2022/08/26 01:28:11;;;;;;;;;;;;;;;30.63;69.88;100844.50;5083228;27;66866;-35
2022/08/26 01:30:46;;;;;;;;;;;;;;;30.66;69.88;100841.34;5084579;27;71293;-35
2022/08/26 01:33:22;;;;;;;;;;;;;;;30.69;70.05;100841.75;5066351;27;66518;-35
2022/08/26 01:35:54;;;;;;;;;;;;;;;30.75;69.59;100855.44;5090536;27;70929;-35
2022/08/26 01:38:26;;;;;;;;;;;;;;;30.73;69.62;100848.38;5084761;27;66332;-34
2022/08/26 01:41:03;;;;;;;;;;;;;;;30.79;69.33;100853.97;5081614;27;44015;-35
2022/08/26 01:43:52;;;;;;;;;;;;;;;30.82;69.70;100853.56;5061911;27;66666;-36
2022/08/26 01:46:25;;;;;;;;;;;;;;;30.85;69.82;100862.06;5089549;27;70749;-34
2022/08/26 01:48:59;;;;;;;;;;;;;;;30.87;69.57;100859.97;5083654;27;66419;-35
2022/08/26 01:51:35;;;;;;;;;;;;;;;30.89;69.22;100855.16;5082657;27;70946;-35
2022/08/26 01:54:09;;;;;;;;;;;;;;;30.93;69.29;100860.97;5090164;27;67312;-35
2022/08/26 01:56:42;;;;;;;;;;;;;;;30.95;69.01;100861.56;5064920;27;70386;-34
2022/08/26 01:59:19;;;;;;;;;;;;;;;30.97;69.27;100862.16;5090567;27;66620;-35
2022/08/26 02:01:51;;;;;;;;;;;;;;;31.00;69.08;100866.31;5094544;27;71202;-37
2022/08/26 02:04:26;;;;;;;;;;;;;;;31.03;69.28;100864.00;5072976;27;67305;-35
2022/08/26 02:07:01;;;;;;;;;;;;;;;31.05;68.78;100861.91;5085897;27;71201;-35
2022/08/26 02:09:37;;;;;;;;;;;;;;;31.08;69.13;100869.56;5074000;27;66401;-34
2022/08/26 02:12:11;;;;;;;;;;;;;;;31.11;68.67;100866.41;5081780;27;71306;-35
2022/08/26 02:14:49;;;;;;;;;;;;;;;31.14;68.93;100863.25;5086090;27;67608;-35
2022/08/26 02:17:22;;;;;;;;;;;;;;;31.17;68.62;100865.56;5081167;27;70339;-35
2022/08/26 02:19:54;;;;;;;;;;;;;;;31.19;68.94;100869.91;5082010;27;67873;-34
2022/08/26 02:22:27;;;;;;;;;;;;;;;31.22;68.69;100872.16;5081152;27;69756;-35
2022/08/26 02:25:06;;;;;;;;;;;;;;;31.23;68.31;100860.28;5082359;27;66750;-35
2022/08/26 02:27:38;;;;;;;;;;;;;;;31.25;68.36;100860.88;5085608;27;70214;-33
2022/08/26 02:30:36;;;;;;;;;;;;;;;31.26;68.15;100862.53;5093213;27;66863;-35
2022/08/26 02:33:08;;;;;;;;;;;;;;;31.30;68.43;100869.19;5075346;27;69627;-35
2022/08/26 02:35:40;;;;;;;;;;;;;;;31.32;68.00;100872.50;5078912;27;67187;-35
2022/08/26 02:38:12;;;;;;;;;;;;;;;31.35;67.87;100861.22;5080126;27;70446;-36
2022/08/26 02:40:44;;;;;;;;;;;;;;;31.36;67.82;100862.88;5077206;27;66767;-34
2022/08/26 02:43:17;;;;;;;;;;;;;;;31.36;67.64;100863.72;5061232;27;71095;-35
2022/08/26 02:46:02;;;;;;;;;;;;;;;31.39;67.44;100863.25;5084818;27;66427;-34
2022/08/26 02:48:34;;;;;;;;;;;;;;;31.41;67.49;100871.19;5086682;27;71017;-35
2022/08/26 02:51:06;;;;;;;;;;;;;;;31.42;67.55;100867.41;5087202;27;67209;-34
2022/08/26 02:53:38;;;;;;;;;;;;;;;31.45;67.44;100869.66;5086860;27;70313;-34
2022/08/26 02:56:11;;;;;;;;;;;;;;;31.47;67.51;100864.84;5082559;27;67047;-35
2022/08/26 02:58:43;;;;;;;;;;;;;;;31.48;67.68;100866.53;5083602;27;70225;-34
2022/08/26 03:01:22;;;;;;;;;;;;;;;31.53;67.47;100865.84;5084362;27;66629;-35
2022/08/26 03:03:55;;;;;;;;;;;;;;;31.55;67.51;100859.13;5085161;27;70449;-35
2022/08/26 03:06:27;;;;;;;;;;;;;;;31.57;67.50;100870.59;5079694;27;67158;-37
2022/08/26 03:08:59;;;;;;;;;;;;;;;31.59;67.84;100871.22;5083115;27;70723;-35
2022/08/26 03:11:31;;;;;;;;;;;;;;;31.61;67.43;100860.94;5087091;27;66535;-35
2022/08/26 03:14:03;;;;;;;;;;;;;;;31.65;67.18;100857.78;5087033;27;70095;-35
2022/08/26 03:16:36;;;;;;;;;;;;;;;31.66;67.31;100859.44;5080861;27;67000;-35
2022/08/26 03:19:08;;;;;;;;;;;;;;;31.68;66.72;100860.03;5085540;27;70706;-35
2022/08/26 03:21:40;;;;;;;;;;;;;;;31.69;66.92;100859.00;5087890;27;67026;-34
2022/08/26 03:24:12;;;;;;;;;;;;;;;31.71;66.38;100854.19;5090524;27;70719;-33
2022/08/26 03:26:45;;;;;;;;;;;;;;;31.72;66.27;100850.41;5085709;27;67462;-35
2022/08/26 03:32:19;;;;;;;;;;;;;;;31.22;66.41;100771.91;5082403;27;67568;-34
2022/08/26 03:34:56;;;;;;;;;;;;;;;31.75;66.75;100844.53;5080663;27;70887;-35
2022/08/26 03:37:28;;;;;;;;;;;;;;;31.76;66.13;100832.59;5083441;27;67013;-34
2022/08/26 03:40:01;;;;;;;;;;;;;;;31.78;66.43;100830.50;5078582;27;70714;-35
2022/08/26 03:42:35;;;;;;;;;;;;;;;31.79;66.29;100827.56;5080408;27;66619;-35
2022/08/26 03:45:09;;;;;;;;;;;;;;;31.80;66.28;100821.09;5083240;27;70551;-34
2022/08/26 03:47:41;;;;;;;;;;;;;;;31.84;66.21;100826.88;5081865;27;66458;-34
2022/08/26 03:50:16;;;;;;;;;;;;;;;31.84;66.55;100821.44;5043657;28;71117;-35
2022/08/26 03:52:53;;;;;;;;;;;;;;;31.86;66.63;100808.50;5067969;27;66314;-34
2022/08/26 03:55:26;;;;;;;;;;;;;;;31.88;66.19;100806.38;5062725;27;70944;-35
2022/08/26 03:57:59;;;;;;;;;;;;;;;31.91;66.37;100805.09;5077296;28;67229;-35
2022/08/26 04:00:31;;;;;;;;;;;;;;;31.94;66.57;100800.06;5086572;27;69836;-34
2022/08/26 04:03:05;;;;;;;;;;;;;;;31.97;66.71;100812.34;5080703;27;67531;-35
2022/08/26 04:05:39;;;;;;;;;;;;;;;31.96;66.44;100800.69;5082610;27;70476;-35
2022/08/26 04:08:11;;;;;;;;;;;;;;;31.96;68.39;100797.13;5083091;27;67130;-34
2022/08/26 04:10:43;;;;;;;;;;;;;;;31.95;68.47;100796.28;5082788;27;71034;-34
2022/08/26 04:13:14;;;;;;;;;;;;;;;31.98;67.82;100793.16;5083896;27;66646;-34
2022/08/26 04:15:46;;;;;;;;;;;;;;;31.99;67.73;100788.53;5080203;27;70843;-34
2022/08/26 04:18:18;;;;;;;;;;;;;;;31.98;67.42;100790.44;5080604;27;66954;-33
2022/08/26 04:20:50;;;;;;;;;;;;;;;31.97;67.24;100777.06;5063474;28;70496;-34
2022/08/26 04:23:22;;;;;;;;;;;;;;;31.97;67.16;100783.31;5086881;27;67623;-34
2022/08/26 04:25:54;;;;;;;;;;;;;;;31.97;67.31;100772.47;5083791;27;70956;-34
2022/08/26 04:28:26;;;;;;;;;;;;;;;31.98;67.22;100766.00;5065496;27;66296;-34
2022/08/26 04:30:58;;;;;;;;;;;;;;;31.99;66.69;100764.94;5070048;27;70129;-34
2022/08/26 04:33:30;;;;;;;;;;;;;;;31.99;66.98;100751.38;5088394;27;66470;-35
2022/08/26 04:36:04;;;;;;;;;;;;;;;31.98;66.75;100752.44;5086145;27;70170;-34
2022/08/26 04:38:36;;;;;;;;;;;;;;;31.99;66.78;100754.09;5084872;27;67052;-34
2022/08/26 04:41:10;;;;;;;;;;;;;;;32.00;66.83;100736.75;5088869;27;69782;-35
2022/08/26 04:43:47;;;;;;;;;;;;;;;32.01;66.80;100730.28;5082544;27;66611;-33
2022/08/26 04:46:24;;;;;;;;;;;;;;;32.02;66.43;100731.91;5080067;27;70137;-33
2022/08/26 04:48:56;;;;;;;;;;;;;;;32.04;66.75;100734.41;5079785;27;67221;-34
2022/08/26 04:51:28;;;;;;;;;;;;;;;32.04;66.48;100735.22;5062440;28;70169;-33
2022/08/26 04:54:00;;;;;;;;;;;;;;;32.02;66.82;100723.78;5083426;27;66230;-35
2022/08/26 04:56:35;;;;;;;;;;;;;;;31.99;67.53;100720.72;5061243;28;70635;-33
2022/08/26 04:59:09;;;;;;;;;;;;;;;32.00;67.27;100712.31;5075955;27;67321;-33
2022/08/26 05:01:50;;;;;;;;;;;;;;;32.02;67.05;100714.81;5063499;27;70441;-34
2022/08/26 05:04:22;;;;;;;;;;;;;;;32.04;67.38;100704.56;5078705;27;66741;-35
2022/08/26 05:06:55;;;;;;;;;;;;;;;32.05;67.10;100698.88;5053016;28;70704;-33
2022/08/26 05:09:32;;;;;;;;;;;;;;;32.08;66.96;100696.78;5068548;28;65833;-35
2022/08/26 05:12:04;;;;;;;;;;;;;;;32.07;65.47;100684.25;5082072;27;71214;-35
2022/08/26 05:14:40;;;;;;;;;;;;;;;31.97;63.80;100674.00;5086818;27;67065;-34
2022/08/26 05:17:12;;;;;;;;;;;;;;;31.88;62.60;100681.59;5083053;27;71269;-35
2022/08/26 05:19:44;;;;;;;;;;;;;;;31.78;61.69;100673.19;5083330;27;66349;-34
2022/08/26 05:22:16;;;;;;;;;;;;;;;31.74;60.92;100669.31;5084880;27;70853;-36
2022/08/26 05:24:49;;;;;;;;;;;;;;;31.65;59.94;100665.25;5084719;27;66709;-34
2022/08/26 05:27:21;;;;;;;;;;;;;;;31.56;59.41;100667.47;5053068;28;70901;-34
2022/08/26 05:29:56;;;;;;;;;;;;;;;31.48;58.60;100655.09;5091314;27;67294;-34
2022/08/26 05:32:28;;;;;;;;;;;;;;;31.42;57.41;100661.41;5086568;27;70278;-34
2022/08/26 05:35:00;;;;;;;;;;;;;;;31.35;56.99;100657.94;5087395;27;66988;-34
2022/08/26 05:37:38;;;;;;;;;;;;;;;31.29;56.74;100650.72;5085034;27;69846;-34
2022/08/26 05:40:10;;;;;;;;;;;;;;;31.25;56.30;100660.34;5081775;27;67568;-34
2022/08/26 05:42:42;;;;;;;;;;;;;;;31.22;55.58;100656.22;5086532;27;70829;-34
2022/08/26 05:45:14;;;;;;;;;;;;;;;31.20;54.95;100662.91;5086715;27;67163;-34
2022/08/26 05:47:46;;;;;;;;;;;;;;;31.17;54.71;100654.19;5068508;28;70738;-33
2022/08/26 05:50:21;;;;;;;;;;;;;;;31.14;53.89;100654.63;5070180;28;67040;-34
2022/08/26 05:52:53;;;;;;;;;;;;;;;31.11;53.60;100654.25;5092903;27;70360;-33
2022/08/26 05:55:25;;;;;;;;;;;;;;;31.07;53.29;100651.19;5071882;27;67258;-33
2022/08/26 05:57:57;;;;;;;;;;;;;;;31.04;52.33;100654.34;5089607;27;70466;-33
2022/08/26 06:00:32;;;;;;;;;;;;;;;31.03;52.83;100652.69;5090912;27;66547;-34
2022/08/26 06:03:07;;;;;;;;;;;;;;;31.03;51.97;100662.69;5076829;27;71029;-33
2022/08/26 06:05:40;;;;;;;;;;;;;;;30.99;51.67;100651.50;5093441;27;67241;-33
2022/08/26 06:08:13;;;;;;;;;;;;;;;31.00;51.25;100652.31;5069424;27;70735;-34
2022/08/26 06:10:50;;;;;;;;;;;;;;;30.96;51.19;100635.69;5076022;27;66599;-34
2022/08/26 06:13:25;;;;;;;;;;;;;;;30.94;51.43;100632.38;5082495;27;71059;-34
2022/08/26 06:16:04;;;;;;;;;;;;;;;30.91;50.90;100632.84;5089646;27;67337;-34
2022/08/26 06:18:38;;;;;;;;;;;;;;;30.91;51.04;100635.56;5085826;27;70296;-34
2022/08/26 06:21:18;;;;;;;;;;;;;;;30.89;50.50;100626.81;5088018;27;66728;-34
2022/08/26 06:26:42;;;;;;;;;;;;;;;30.85;49.78;100628.34;5085266;27;66517;-34
2022/08/26 06:29:21;;;;;;;;;;;;;;;30.84;49.81;100635.63;5085660;27;70993;-34
2022/08/26 06:31:55;;;;;;;;;;;;;;;30.83;49.90;100630.44;5084261;27;66888;-34
2022/08/26 06:34:29;;;;;;;;;;;;;;;30.85;49.72;100628.34;5081549;27;71199;-34
2022/08/26 06:37:02;;;;;;;;;;;;;;;30.79;49.33;100629.22;5081009;27;67497;-34
2022/08/26 06:39:35;;;;;;;;;;;;;;;30.77;48.68;100631.31;5079744;27;70285;-33
2022/08/26 06:42:10;;;;;;;;;;;;;;;30.75;48.91;100630.69;5088583;27;67123;-34
2022/08/26 06:44:43;;;;;;;;;;;;;;;30.73;48.66;100641.78;5084073;27;70758;-34
2022/08/26 06:47:15;;;;;;;;;;;;;;;30.71;48.60;100643.88;5086255;27;66488;-34
2022/08/26 06:49:47;;;;;;;;;;;;;;;30.68;48.26;100655.16;5086962;27;70695;-34
2022/08/26 06:52:20;;;;;;;;;;;;;;;30.66;47.81;100652.66;5078709;27;67072;-35
2022/08/26 06:54:53;;;;;;;;;;;;;;;30.65;48.10;100647.47;5088262;27;70932;-34
2022/08/26 06:57:25;;;;;;;;;;;;;;;30.63;48.13;100644.97;5084092;27;66525;-34
2022/08/26 07:00:00;;;;;;;;;;;;;;;30.60;47.99;100642.72;5085419;27;70719;-33
2022/08/26 07:02:33;;;;;;;;;;;;;;;30.59;47.78;100719.59;5082302;27;66394;-34
2022/08/26 07:05:05;;;;;;;;;;;;;;;30.71;51.35;100742.16;5082875;27;70011;-34
2022/08/26 07:07:38;;;;;;;;;;;;;;;30.91;54.19;100731.16;5069035;27;66160;-35
2022/08/26 07:10:11;;;;;;;;;;;;;;;31.07;57.75;100718.09;5081790;27;71009;-34
2022/08/26 07:12:44;;;;;;;;;;;;;;;31.20;60.42;100717.09;5080984;27;65927;-39
2022/08/26 07:15:16;;;;;;;;;;;;;;;31.29;60.75;100704.91;5066163;27;69406;-33
2022/08/26 07:17:56;;;;;;;;;;;;;;;31.36;61.55;100721.94;5067113;28;66702;-34
2022/08/26 07:20:28;;;;;;;;;;;;;;;31.43;62.33;100728.13;5081453;27;70209;-33
2022/08/26 07:23:00;;;;;;;;;;;;;;;31.49;62.55;100732.63;5082709;27;66969;-34
2022/08/26 07:25:33;;;;;;;;;;;;;;;31.55;62.52;100730.88;5081427;27;70966;-33
2022/08/26 07:28:06;;;;;;;;;;;;;;;31.58;62.97;100742.09;5084406;27;66546;-34
2022/08/26 07:30:40;;;;;;;;;;;;;;;31.62;63.01;100747.88;5084736;27;71061;-34
2022/08/26 07:33:12;;;;;;;;;;;;;;;31.63;63.92;100754.97;5078804;27;66184;-34
2022/08/26 07:35:44;;;;;;;;;;;;;;;31.66;63.41;100776.22;5068434;28;71216;-35
2022/08/26 07:38:16;;;;;;;;;;;;;;;31.68;63.47;100762.41;5066442;28;66680;-35
2022/08/26 07:40:48;;;;;;;;;;;;;;;31.68;64.33;100767.81;5060181;28;69960;-34
2022/08/26 07:43:22;;;;;;;;;;;;;;;31.72;63.85;100752.78;5061546;28;67298;-36
2022/08/26 07:45:54;;;;;;;;;;;;;;;31.72;64.00;100741.94;5058045;28;70284;-33
2022/08/26 07:48:26;;;;;;;;;;;;;;;31.73;64.32;100735.44;5063109;28;66313;-34
2022/08/26 07:50:59;;;;;;;;;;;;;;;31.73;64.15;100727.28;5062589;28;70587;-34
2022/08/26 07:53:33;;;;;;;;;;;;;;;31.73;64.55;100727.28;5061585;28;66392;-34
2022/08/26 07:56:05;;;;;;;;;;;;;;;31.72;64.31;100721.06;5063520;28;71050;-35
2022/08/26 07:58:37;;;;;;;;;;;;;;;31.72;63.85;100720.22;5061115;28;66636;-35
2022/08/26 08:01:11;;;;;;;;;;;;;;;31.74;63.79;100723.53;5079008;27;70977;-34
2022/08/26 08:03:43;;;;;;;;;;;;;;;31.46;67.01;100716.00;5063358;28;66689;-34
2022/08/26 08:06:20;;;;;;;;;;;;;;;31.31;68.07;100719.06;5061745;28;70865;-34
2022/08/26 08:08:56;;;;;;;;;;;;;;;31.20;68.52;100711.69;5062850;28;67124;-34
2022/08/26 08:11:29;;;;;;;;;;;;;;;31.09;68.52;100716.81;5063812;28;71384;-33
2022/08/26 08:14:03;;;;;;;;;;;;;;;31.01;68.90;100713.56;5059001;28;67131;-34
2022/08/26 08:16:40;;;;;;;;;;;;;;;30.96;69.35;100722.38;5060135;28;70900;-35
2022/08/26 08:19:16;;;;;;;;;;;;;;;30.91;69.69;100714.09;5059222;28;67176;-34
2022/08/26 08:21:48;;;;;;;;;;;;;;;30.87;69.93;100707.44;5069233;28;71236;-34
2022/08/26 08:24:20;;;;;;;;;;;;;;;30.85;69.37;100715.00;5069775;28;66622;-34
2022/08/26 08:26:52;;;;;;;;;;;;;;;30.81;69.96;100730.03;5065460;28;71043;-34
2022/08/26 08:29:26;;;;;;;;;;;;;;;30.79;70.54;100743.78;5066027;28;66510;-34
2022/08/26 08:32:01;;;;;;;;;;;;;;;30.77;70.43;100745.03;5059488;28;70025;-35
2022/08/26 08:34:34;;;;;;;;;;;;;;;30.73;70.14;100742.78;5059810;28;66266;-34
2022/08/26 08:37:06;;;;;;;;;;;;;;;30.69;70.74;100738.84;5082243;27;70964;-34
2022/08/26 08:39:40;;;;;;;;;;;;;;;30.66;70.91;100736.59;5081400;27;67702;-34
2022/08/26 08:42:21;;;;;;;;;;;;;;;30.64;70.84;100733.25;5084901;27;70825;-33
2022/08/26 08:44:56;;;;;;;;;;;;;;;30.63;70.54;100723.50;5085317;27;66792;-33
2022/08/26 08:48:00;;;;;;;;;;;;;;;30.60;70.95;100715.81;5085328;27;71132;-35
2022/08/26 08:50:36;;;;;;;;;;;;;;;30.55;71.04;100710.25;5056744;27;67119;-35
2022/08/26 08:53:16;;;;;;;;;;;;;;;30.55;71.04;100702.13;5092781;27;70866;-33
2022/08/26 08:55:51;;;;;;;;;;;;;;;30.50;71.10;100697.38;5084815;27;66616;-34
2022/08/26 08:58:39;;;;;;;;;;;;;;;30.47;71.63;100697.00;5085678;27;70218;-35
2022/08/26 09:01:17;;;;;;;;;;;;;;;30.45;71.43;100699.94;5094006;27;66346;-35
2022/08/26 09:03:54;;;;;;;;;;;;;;;30.42;71.93;100705.78;5085734;27;70601;-35
2022/08/26 09:06:30;;;;;;;;;;;;;;;30.41;72.76;100711.41;5084378;27;66693;-34
2022/08/26 09:09:15;;;;;;;;;;;;;;;30.40;73.28;100723.31;5093811;27;70736;-34
2022/08/26 09:11:47;;;;;;;;;;;;;;;30.36;72.80;100722.88;5087913;27;67477;-34
2022/08/26 09:14:19;;;;;;;;;;;;;;;30.35;72.74;100725.84;5089906;27;70858;-34
2022/08/26 09:17:04;;;;;;;;;;;;;;;30.35;72.97;100731.25;5082627;27;67228;-35
2022/08/26 09:19:42;;;;;;;;;;;;;;;30.33;72.96;100727.94;5087284;27;70752;-36
2022/08/26 09:22:28;;;;;;;;;;;;;;;30.31;73.30;100724.59;5081408;27;66565;-35
2022/08/26 09:25:00;;;;;;;;;;;;;;;30.31;72.93;100730.00;5082959;27;70900;-34
2022/08/26 09:27:41;;;;;;;;;;;;;;;30.29;73.16;100727.53;5080908;27;67266;-35
2022/08/26 09:30:15;;;;;;;;;;;;;;;30.28;72.79;100721.31;5068960;27;70741;-35
2022/08/26 09:33:07;;;;;;;;;;;;;;;30.26;72.68;100718.00;5092209;27;67187;-35
2022/08/26 09:35:42;;;;;;;;;;;;;;;30.24;73.35;100720.06;5086327;27;70766;-34
2022/08/26 09:38:23;;;;;;;;;;;;;;;30.23;73.16;100715.72;5087667;27;67317;-36
2022/08/26 09:41:00;;;;;;;;;;;;;;;30.24;73.02;100719.25;5082118;27;71019;-35
2022/08/26 09:43:34;;;;;;;;;;;;;;;30.23;72.96;100723.84;5075574;27;67235;-37
2022/08/26 09:46:22;;;;;;;;;;;;;;;30.22;73.15;100714.06;5084046;27;70823;-35
2022/08/26 09:48:54;;;;;;;;;;;;;;;30.21;73.08;100720.50;5080909;27;66046;-35
2022/08/26 09:51:29;;;;;;;;;;;;;;;30.24;73.39;100713.84;5082793;27;70100;-35
2022/08/26 09:54:02;;;;;;;;;;;;;;;30.25;73.33;100710.91;5091106;27;67049;-34
2022/08/26 09:56:37;;;;;;;;;;;;;;;30.25;73.31;100710.91;5078097;27;70726;-35
2022/08/26 09:59:10;;;;;;;;;;;;;;;30.26;74.04;100709.88;5063046;27;66852;-35
2022/08/26 10:01:43;;;;;;;;;;;;;;;30.27;74.14;100714.22;5082278;27;70594;-35
2022/08/26 10:04:22;;;;;;;;;;;;;;;30.30;73.50;100712.13;5082949;27;66315;-36
2022/08/26 10:07:00;;;;;;;;;;;;;;;30.32;73.66;100715.47;5081584;27;70912;-35
2022/08/26 10:09:34;;;;;;;;;;;;;;;30.28;73.25;100718.59;5081912;27;66938;-35
2022/08/26 10:12:12;;;;;;;;;;;;;;;30.30;73.76;100726.50;5081063;27;70085;-34
2022/08/26 10:14:50;;;;;;;;;;;;;;;30.30;73.52;100728.38;5058489;28;68043;-35
2022/08/26 10:17:35;;;;;;;;;;;;;;;30.30;73.50;100741.91;5082762;27;70180;-35
2022/08/26 10:20:07;;;;;;;;;;;;;;;30.31;74.04;100740.84;5078446;27;66531;-35
2022/08/26 10:23:01;;;;;;;;;;;;;;;30.33;73.75;100749.56;5076932;27;70536;-35
2022/08/26 10:25:37;;;;;;;;;;;;;;;30.32;73.86;100751.47;5082536;27;67874;-35
2022/08/26 10:28:24;;;;;;;;;;;;;;;30.32;74.09;100748.75;5084533;27;70842;-35
2022/08/26 10:31:15;;;;;;;;;;;;;;;30.31;74.43;100757.06;5051226;28;66566;-35
2022/08/26 10:33:49;;;;;;;;;;;;;;;30.35;74.57;100771.84;5077615;27;70528;-33
2022/08/26 10:36:48;;;;;;;;;;;;;;;30.28;73.04;100775.44;5090067;27;66492;-33
2022/08/26 10:39:44;;;;;;;;;;;;;;;30.26;74.17;100782.94;5083483;27;70606;-34
2022/08/26 10:42:36;;;;;;;;;;;;;;;30.26;73.80;100788.34;5085218;27;67507;-32
2022/08/26 10:45:18;;;;;;;;;;;;;;;30.27;74.43;100794.56;5089512;27;70281;-34
2022/08/26 10:47:59;;;;;;;;;;;;;;;30.24;74.75;100787.72;5083604;27;66353;-36
2022/08/26 10:50:34;;;;;;;;;;;;;;;30.31;73.75;100789.53;5083183;27;70313;-35
2022/08/26 10:53:10;;;;;;;;;;;;;;;30.37;73.82;100804.91;5076674;27;67465;-35
2022/08/26 10:55:46;;;;;;;;;;;;;;;30.46;73.01;100809.03;5065120;28;71003;-36
2022/08/26 10:58:24;;;;;;;;;;;;;;;30.54;72.73;100827.72;5065318;28;66145;-36
2022/08/26 11:03:54;;;;;;;;;;;;;;;30.64;72.60;100833.44;5060478;28;66881;-35
2022/08/26 11:06:29;;;;;;;;;;;;;;;30.68;72.17;100840.09;5078957;27;70025;-35
2022/08/26 11:09:03;;;;;;;;;;;;;;;30.72;72.21;100840.47;5062397;28;67291;-35
2022/08/26 11:11:38;;;;;;;;;;;;;;;30.75;72.38;100847.31;5076696;27;71033;-36
2022/08/26 11:14:29;;;;;;;;;;;;;;;30.76;71.73;100851.69;5070467;28;65904;-35
2022/08/26 11:17:40;;;;;;;;;;;;;;;30.80;72.02;100858.38;5063182;28;70050;-33
2022/08/26 11:20:30;;;;;;;;;;;;;;;30.82;71.63;100861.69;5048434;27;67003;-35
2022/08/26 11:23:09;;;;;;;;;;;;;;;30.84;71.91;100870.41;5053192;28;69981;-34
2022/08/26 11:25:55;;;;;;;;;;;;;;;30.85;71.78;100872.06;5051239;28;67247;-37
2022/08/26 11:28:36;;;;;;;;;;;;;;;30.75;70.91;100869.00;5061443;28;70583;-32
2022/08/26 11:31:09;;;;;;;;;;;;;;;30.58;72.25;100872.22;5066078;27;65403;-35
2022/08/26 11:33:48;;;;;;;;;;;;;;;30.47;73.25;100878.34;5038554;28;70894;-33
2022/08/26 11:36:36;;;;;;;;;;;;;;;30.40;74.04;100881.09;5060671;28;67071;-34
2022/08/26 11:39:18;;;;;;;;;;;;;;;30.33;74.62;100891.13;5060250;28;69901;-35
2022/08/26 11:41:52;;;;;;;;;;;;;;;30.28;74.63;100888.22;5036982;28;67166;-33
2022/08/26 11:44:36;;;;;;;;;;;;;;;30.24;74.57;100887.00;5070009;28;70614;-33
2022/08/26 11:47:12;;;;;;;;;;;;;;;30.21;74.86;100895.53;5060787;28;66202;-34
2022/08/26 11:49:45;;;;;;;;;;;;;;;30.19;75.36;100901.13;5033515;28;70380;-36
2022/08/26 11:52:20;;;;;;;;;;;;;;;30.16;75.34;100896.16;5067907;28;66106;-36
2022/08/26 11:54:59;;;;;;;;;;;;;;;30.15;75.81;100899.94;5045527;28;70450;-33
2022/08/26 11:57:41;;;;;;;;;;;;;;;30.15;75.37;100910.75;5069042;28;67385;-34
2022/08/26 12:00:34;;;;;;;;;;;;;;;30.12;74.80;100911.19;5082607;27;70770;-33
2022/08/26 12:03:16;;;;;;;;;;;;;;;30.13;75.41;100904.72;5049348;28;66001;-34
2022/08/26 12:05:52;;;;;;;;;;;;;;;30.14;75.59;100905.53;5047131;28;70354;-35
2022/08/26 12:08:27;;;;;;;;;;;;;;;30.12;75.44;100905.78;5062597;27;67649;-35
2022/08/26 12:11:03;;;;;;;;;;;;;;;30.12;75.31;100904.94;5060999;27;71083;-34
2022/08/26 12:13:37;;;;;;;;;;;;;;;30.14;75.57;100914.47;5080253;27;67607;-36
2022/08/26 12:16:11;;;;;;;;;;;;;;;30.12;75.36;100916.59;5080530;27;70150;-33
2022/08/26 12:18:45;;;;;;;;;;;;;;;30.14;76.04;100919.06;5061546;28;67359;-33
2022/08/26 12:21:22;;;;;;;;;;;;;;;30.12;75.22;100924.72;5054947;28;70668;-34
2022/08/26 12:23:55;;;;;;;;;;;;;;;30.11;75.65;100914.91;5057751;28;67087;-34
2022/08/26 12:26:30;;;;;;;;;;;;;;;30.13;75.69;100912.00;5064889;27;70716;-36
2022/08/26 12:29:03;;;;;;;;;;;;;;;30.15;75.92;100920.75;5081584;27;66069;-34
2022/08/26 12:31:49;;;;;;;;;;;;;;;30.15;75.78;100916.16;5094073;27;70499;-34
2022/08/26 12:34:24;;;;;;;;;;;;;;;30.17;76.24;100919.50;5087321;27;66961;-36
2022/08/26 12:36:58;;;;;;;;;;;;;;;30.18;76.18;100921.13;5091029;27;70727;-36
2022/08/26 12:39:34;;;;;;;;;;;;;;;30.20;76.11;100915.50;5082105;27;67019;-35
2022/08/26 12:42:14;;;;;;;;;;;;;;;30.19;75.85;100916.56;5074536;27;70045;-35
2022/08/26 12:44:49;;;;;;;;;;;;;;;30.19;76.30;100917.38;5081636;27;66953;-35
2022/08/26 12:47:23;;;;;;;;;;;;;;;30.19;75.79;100916.56;5082691;27;70011;-34
2022/08/26 12:50:18;;;;;;;;;;;;;;;30.18;75.72;100915.72;5086051;27;67294;-34
2022/08/26 12:52:52;;;;;;;;;;;;;;;30.17;75.50;100919.50;5087095;27;70758;-37
2022/08/26 12:55:30;;;;;;;;;;;;;;;30.18;75.59;100926.53;5069927;28;65760;-36
2022/08/26 12:58:28;;;;;;;;;;;;;;;30.08;73.77;100934.28;5060837;28;70946;-35
2022/08/26 13:01:03;;;;;;;;;;;;;;;29.98;72.93;100942.84;5083938;27;67275;-35
2022/08/26 13:03:45;;;;;;;;;;;;;;;29.91;71.58;100954.72;5070359;27;70934;-33
2022/08/26 13:06:16;;;;;;;;;;;;;;;29.84;71.37;100963.69;5068414;27;65956;-36
2022/08/26 13:08:51;;;;;;;;;;;;;;;29.74;70.27;100963.28;5050679;27;70781;-35
2022/08/26 13:11:26;;;;;;;;;;;;;;;29.71;69.29;100971.00;5028056;28;67659;-35
2022/08/26 13:14:08;;;;;;;;;;;;;;;29.66;69.09;100976.19;5081833;27;70668;-44
2022/08/26 13:16:48;;;;;;;;;;;;;;;29.62;68.08;100981.16;5072582;27;66482;-37
2022/08/26 13:19:24;;;;;;;;;;;;;;;29.57;67.20;100983.66;5041521;28;70311;-35
2022/08/26 13:21:58;;;;;;;;;;;;;;;29.53;67.04;100995.91;5046868;28;66874;-34
2022/08/26 13:24:32;;;;;;;;;;;;;;;29.46;66.35;101003.22;5027137;27;69960;-36
2022/08/26 13:27:05;;;;;;;;;;;;;;;29.43;66.78;101012.56;5080115;27;67079;-35